Aviation Digital Data Service (ADDS)

Output produced by TAFs form (1427 UTC 25 April 2015)
found at http://aviationweather.gov/adds/tafs/
 
KAEG 251128Z 2512/2612 28005KT P6SM FEW025 
     FM251700 24010KT P6SM SCT070 
     FM252100 25015G25KT P6SM VCSH BKN080 
     FM260300 25011KT P6SM BKN090 
     FM260800 21005KT P6SM BKN080